sensor_id;sensor_type;location;lat;lon;timestamp;P1;durP1;ratioP1;P2;durP2;ratioP2
3571;SDS011;7958;53.024;12.970;2024-01-06T00:00:25;15.03;;;8.23;;
3571;SDS011;7958;53.024;12.970;2024-01-06T00:02:51;10.40;;;7.13;;
3571;SDS011;7958;53.024;12.970;2024-01-06T00:05:17;11.83;;;7.37;;
3571;SDS011;7958;53.024;12.970;2024-01-06T00:07:45;14.73;;;9.10;;
3571;SDS011;7958;53.024;12.970;2024-01-06T00:10:11;14.40;;;8.17;;
3571;SDS011;7958;53.024;12.970;2024-01-06T00:12:38;13.87;;;7.47;;
3571;SDS011;7958;53.024;12.970;2024-01-06T00:15:04;13.23;;;7.93;;
3571;SDS011;7958;53.024;12.970;2024-01-06T00:17:32;12.40;;;7.23;;
3571;SDS011;7958;53.024;12.970;2024-01-06T00:19:58;11.00;;;7.50;;
3571;SDS011;7958;53.024;12.970;2024-01-06T00:22:25;17.73;;;8.40;;
3571;SDS011;7958;53.024;12.970;2024-01-06T00:24:53;12.37;;;7.47;;
3571;SDS011;7958;53.024;12.970;2024-01-06T00:27:19;15.13;;;8.17;;
3571;SDS011;7958;53.024;12.970;2024-01-06T00:29:45;14.93;;;8.10;;
3571;SDS011;7958;53.024;12.970;2024-01-06T00:32:12;13.10;;;8.90;;
3571;SDS011;7958;53.024;12.970;2024-01-06T00:34:38;11.67;;;7.90;;
3571;SDS011;7958;53.024;12.970;2024-01-06T00:37:05;15.43;;;9.00;;
3571;SDS011;7958;53.024;12.970;2024-01-06T00:39:31;11.90;;;7.37;;
3571;SDS011;7958;53.024;12.970;2024-01-06T00:41:59;14.47;;;8.30;;
3571;SDS011;7958;53.024;12.970;2024-01-06T00:44:25;12.63;;;7.77;;
3571;SDS011;7958;53.024;12.970;2024-01-06T00:46:51;13.40;;;8.10;;
3571;SDS011;7958;53.024;12.970;2024-01-06T00:49:18;11.23;;;7.63;;
3571;SDS011;7958;53.024;12.970;2024-01-06T00:51:44;11.80;;;8.33;;
3571;SDS011;7958;53.024;12.970;2024-01-06T00:54:10;12.90;;;7.80;;
3571;SDS011;7958;53.024;12.970;2024-01-06T00:56:37;12.23;;;7.40;;
3571;SDS011;7958;53.024;12.970;2024-01-06T00:59:04;11.70;;;7.60;;
3571;SDS011;7958;53.024;12.970;2024-01-06T01:01:31;12.83;;;7.60;;
3571;SDS011;7958;53.024;12.970;2024-01-06T01:03:57;11.60;;;7.90;;
3571;SDS011;7958;53.024;12.970;2024-01-06T01:06:24;14.00;;;7.93;;
3571;SDS011;7958;53.024;12.970;2024-01-06T01:08:50;13.00;;;7.63;;
3571;SDS011;7958;53.024;12.970;2024-01-06T01:11:17;10.30;;;6.53;;
3571;SDS011;7958;53.024;12.970;2024-01-06T01:13:43;10.17;;;6.67;;
3571;SDS011;7958;53.024;12.970;2024-01-06T01:16:11;12.13;;;8.00;;
3571;SDS011;7958;53.024;12.970;2024-01-06T01:18:37;13.00;;;7.70;;
3571;SDS011;7958;53.024;12.970;2024-01-06T01:21:03;12.00;;;7.90;;
3571;SDS011;7958;53.024;12.970;2024-01-06T01:23:30;11.60;;;7.33;;
3571;SDS011;7958;53.024;12.970;2024-01-06T01:25:56;17.30;;;9.03;;
3571;SDS011;7958;53.024;12.970;2024-01-06T01:28:22;10.67;;;6.80;;
3571;SDS011;7958;53.024;12.970;2024-01-06T01:30:48;15.30;;;9.33;;
3571;SDS011;7958;53.024;12.970;2024-01-06T01:33:16;12.53;;;7.70;;
3571;SDS011;7958;53.024;12.970;2024-01-06T01:35:43;11.00;;;8.03;;
3571;SDS011;7958;53.024;12.970;2024-01-06T01:38:09;16.47;;;8.77;;
3571;SDS011;7958;53.024;12.970;2024-01-06T01:40:36;12.83;;;7.50;;
3571;SDS011;7958;53.024;12.970;2024-01-06T01:43:02;12.43;;;8.33;;
3571;SDS011;7958;53.024;12.970;2024-01-06T01:45:29;14.67;;;8.43;;
3571;SDS011;7958;53.024;12.970;2024-01-06T01:47:55;11.27;;;7.17;;
3571;SDS011;7958;53.024;12.970;2024-01-06T01:50:23;14.57;;;8.17;;
3571;SDS011;7958;53.024;12.970;2024-01-06T01:52:52;12.63;;;7.90;;
3571;SDS011;7958;53.024;12.970;2024-01-06T01:55:18;13.73;;;7.30;;
3571;SDS011;7958;53.024;12.970;2024-01-06T01:57:45;13.20;;;8.83;;
3571;SDS011;7958;53.024;12.970;2024-01-06T02:00:12;18.07;;;8.50;;
3571;SDS011;7958;53.024;12.970;2024-01-06T02:02:39;10.10;;;6.40;;
3571;SDS011;7958;53.024;12.970;2024-01-06T02:05:05;15.37;;;8.07;;
3571;SDS011;7958;53.024;12.970;2024-01-06T02:07:33;13.97;;;8.70;;
3571;SDS011;7958;53.024;12.970;2024-01-06T02:10:00;10.90;;;7.07;;
3571;SDS011;7958;53.024;12.970;2024-01-06T02:12:26;14.40;;;8.40;;
3571;SDS011;7958;53.024;12.970;2024-01-06T02:14:52;14.37;;;8.97;;
3571;SDS011;7958;53.024;12.970;2024-01-06T02:17:19;14.00;;;8.80;;
3571;SDS011;7958;53.024;12.970;2024-01-06T02:19:45;11.13;;;6.93;;
3571;SDS011;7958;53.024;12.970;2024-01-06T02:22:13;13.13;;;8.03;;
3571;SDS011;7958;53.024;12.970;2024-01-06T02:24:39;13.50;;;7.57;;
3571;SDS011;7958;53.024;12.970;2024-01-06T02:27:04;15.07;;;7.90;;
3571;SDS011;7958;53.024;12.970;2024-01-06T02:29:31;11.40;;;7.20;;
3571;SDS011;7958;53.024;12.970;2024-01-06T02:31:57;11.93;;;7.37;;
3571;SDS011;7958;53.024;12.970;2024-01-06T02:34:24;16.03;;;8.90;;
3571;SDS011;7958;53.024;12.970;2024-01-06T02:36:50;13.03;;;7.30;;
3571;SDS011;7958;53.024;12.970;2024-01-06T02:39:18;13.70;;;8.17;;
3571;SDS011;7958;53.024;12.970;2024-01-06T02:41:44;15.17;;;8.87;;
3571;SDS011;7958;53.024;12.970;2024-01-06T02:44:10;11.23;;;7.17;;
3571;SDS011;7958;53.024;12.970;2024-01-06T02:46:38;14.03;;;8.10;;
3571;SDS011;7958;53.024;12.970;2024-01-06T02:49:05;16.00;;;8.30;;
3571;SDS011;7958;53.024;12.970;2024-01-06T02:51:31;15.93;;;8.87;;
3571;SDS011;7958;53.024;12.970;2024-01-06T02:53:57;13.70;;;8.90;;
3571;SDS011;7958;53.024;12.970;2024-01-06T02:56:25;14.40;;;8.37;;
3571;SDS011;7958;53.024;12.970;2024-01-06T02:58:51;16.17;;;8.50;;
3571;SDS011;7958;53.024;12.970;2024-01-06T03:01:19;17.77;;;8.90;;
3571;SDS011;7958;53.024;12.970;2024-01-06T03:03:45;16.97;;;8.73;;
3571;SDS011;7958;53.024;12.970;2024-01-06T03:06:11;12.80;;;8.07;;
3571;SDS011;7958;53.024;12.970;2024-01-06T03:08:38;11.70;;;7.87;;
3571;SDS011;7958;53.024;12.970;2024-01-06T03:11:04;19.33;;;10.57;;
3571;SDS011;7958;53.024;12.970;2024-01-06T03:13:32;19.37;;;10.30;;
3571;SDS011;7958;53.024;12.970;2024-01-06T03:16:01;17.00;;;9.00;;
3571;SDS011;7958;53.024;12.970;2024-01-06T03:18:29;18.63;;;9.70;;
3571;SDS011;7958;53.024;12.970;2024-01-06T03:20:55;23.93;;;9.87;;
3571;SDS011;7958;53.024;12.970;2024-01-06T03:23:21;18.83;;;10.07;;
3571;SDS011;7958;53.024;12.970;2024-01-06T03:25:48;15.10;;;8.80;;
3571;SDS011;7958;53.024;12.970;2024-01-06T03:28:14;18.20;;;9.63;;
3571;SDS011;7958;53.024;12.970;2024-01-06T03:30:42;21.03;;;11.17;;
3571;SDS011;7958;53.024;12.970;2024-01-06T03:33:08;17.03;;;10.33;;
3571;SDS011;7958;53.024;12.970;2024-01-06T03:35:34;16.67;;;10.80;;
3571;SDS011;7958;53.024;12.970;2024-01-06T03:38:01;16.93;;;10.07;;
3571;SDS011;7958;53.024;12.970;2024-01-06T03:40:27;23.83;;;10.20;;
3571;SDS011;7958;53.024;12.970;2024-01-06T03:42:54;23.10;;;11.80;;
3571;SDS011;7958;53.024;12.970;2024-01-06T03:45:20;24.50;;;11.00;;
3571;SDS011;7958;53.024;12.970;2024-01-06T03:47:48;19.20;;;11.50;;
3571;SDS011;7958;53.024;12.970;2024-01-06T03:50:15;20.80;;;9.90;;
3571;SDS011;7958;53.024;12.970;2024-01-06T03:52:41;26.53;;;11.43;;
3571;SDS011;7958;53.024;12.970;2024-01-06T03:55:08;21.93;;;10.87;;
3571;SDS011;7958;53.024;12.970;2024-01-06T03:57:34;21.00;;;11.87;;
3571;SDS011;7958;53.024;12.970;2024-01-06T04:00:01;19.37;;;11.73;;
3571;SDS011;7958;53.024;12.970;2024-01-06T04:02:28;20.90;;;10.80;;
3571;SDS011;7958;53.024;12.970;2024-01-06T04:04:55;24.80;;;12.93;;
3571;SDS011;7958;53.024;12.970;2024-01-06T04:07:21;18.57;;;11.07;;
3571;SDS011;7958;53.024;12.970;2024-01-06T04:09:48;22.53;;;12.07;;
3571;SDS011;7958;53.024;12.970;2024-01-06T04:12:15;23.07;;;12.47;;
3571;SDS011;7958;53.024;12.970;2024-01-06T04:14:41;23.50;;;12.80;;
3571;SDS011;7958;53.024;12.970;2024-01-06T04:17:07;22.47;;;12.77;;
3571;SDS011;7958;53.024;12.970;2024-01-06T04:19:34;24.10;;;12.37;;
3571;SDS011;7958;53.024;12.970;2024-01-06T04:22:01;29.33;;;13.03;;
3571;SDS011;7958;53.024;12.970;2024-01-06T04:24:28;30.63;;;13.90;;
3571;SDS011;7958;53.024;12.970;2024-01-06T04:26:54;27.70;;;13.07;;
3571;SDS011;7958;53.024;12.970;2024-01-06T04:29:20;24.97;;;12.77;;
3571;SDS011;7958;53.024;12.970;2024-01-06T04:31:47;23.90;;;12.00;;
3571;SDS011;7958;53.024;12.970;2024-01-06T04:34:13;25.77;;;13.40;;
3571;SDS011;7958;53.024;12.970;2024-01-06T04:36:40;23.20;;;13.57;;
3571;SDS011;7958;53.024;12.970;2024-01-06T04:39:07;24.23;;;14.03;;
3571;SDS011;7958;53.024;12.970;2024-01-06T04:41:33;21.30;;;12.20;;
3571;SDS011;7958;53.024;12.970;2024-01-06T04:44:00;26.70;;;13.47;;
3571;SDS011;7958;53.024;12.970;2024-01-06T04:46:27;22.50;;;12.77;;
3571;SDS011;7958;53.024;12.970;2024-01-06T04:48:55;30.33;;;14.00;;
3571;SDS011;7958;53.024;12.970;2024-01-06T04:51:22;27.33;;;13.23;;
3571;SDS011;7958;53.024;12.970;2024-01-06T04:53:48;24.47;;;11.80;;
3571;SDS011;7958;53.024;12.970;2024-01-06T04:56:16;25.73;;;11.47;;
3571;SDS011;7958;53.024;12.970;2024-01-06T04:58:42;26.77;;;13.30;;
3571;SDS011;7958;53.024;12.970;2024-01-06T05:01:08;25.50;;;12.90;;
3571;SDS011;7958;53.024;12.970;2024-01-06T05:03:35;27.03;;;13.27;;
3571;SDS011;7958;53.024;12.970;2024-01-06T05:06:01;28.03;;;12.40;;
3571;SDS011;7958;53.024;12.970;2024-01-06T05:08:28;20.33;;;11.73;;
3571;SDS011;7958;53.024;12.970;2024-01-06T05:10:55;27.80;;;13.23;;
3571;SDS011;7958;53.024;12.970;2024-01-06T05:13:23;26.30;;;12.93;;
3571;SDS011;7958;53.024;12.970;2024-01-06T05:15:50;27.40;;;13.23;;
3571;SDS011;7958;53.024;12.970;2024-01-06T05:18:16;23.10;;;13.23;;
3571;SDS011;7958;53.024;12.970;2024-01-06T05:20:42;18.80;;;10.80;;
3571;SDS011;7958;53.024;12.970;2024-01-06T05:23:09;25.83;;;13.90;;
3571;SDS011;7958;53.024;12.970;2024-01-06T05:25:35;24.10;;;12.50;;
3571;SDS011;7958;53.024;12.970;2024-01-06T05:28:01;20.47;;;12.20;;
3571;SDS011;7958;53.024;12.970;2024-01-06T05:30:29;21.43;;;12.50;;
3571;SDS011;7958;53.024;12.970;2024-01-06T05:32:55;27.90;;;12.90;;
3571;SDS011;7958;53.024;12.970;2024-01-06T05:35:22;25.23;;;12.10;;
3571;SDS011;7958;53.024;12.970;2024-01-06T05:37:48;27.47;;;14.80;;
3571;SDS011;7958;53.024;12.970;2024-01-06T05:40:15;30.80;;;13.70;;
3571;SDS011;7958;53.024;12.970;2024-01-06T05:42:41;26.17;;;12.43;;
3571;SDS011;7958;53.024;12.970;2024-01-06T05:45:09;28.83;;;13.13;;
3571;SDS011;7958;53.024;12.970;2024-01-06T05:47:38;29.70;;;14.00;;
3571;SDS011;7958;53.024;12.970;2024-01-06T05:50:04;25.83;;;13.40;;
3571;SDS011;7958;53.024;12.970;2024-01-06T05:52:34;20.90;;;11.30;;
3571;SDS011;7958;53.024;12.970;2024-01-06T05:55:00;24.07;;;12.83;;
3571;SDS011;7958;53.024;12.970;2024-01-06T05:57:27;28.00;;;13.73;;
3571;SDS011;7958;53.024;12.970;2024-01-06T05:59:53;29.03;;;13.70;;
3571;SDS011;7958;53.024;12.970;2024-01-06T06:02:19;25.63;;;13.10;;
3571;SDS011;7958;53.024;12.970;2024-01-06T06:04:47;22.40;;;11.83;;
3571;SDS011;7958;53.024;12.970;2024-01-06T06:07:13;31.20;;;13.17;;
3571;SDS011;7958;53.024;12.970;2024-01-06T06:09:40;21.30;;;11.40;;
3571;SDS011;7958;53.024;12.970;2024-01-06T06:12:06;23.40;;;11.93;;
3571;SDS011;7958;53.024;12.970;2024-01-06T06:14:33;27.77;;;11.50;;
3571;SDS011;7958;53.024;12.970;2024-01-06T06:16:59;23.90;;;12.97;;
3571;SDS011;7958;53.024;12.970;2024-01-06T06:19:25;23.37;;;12.60;;
3571;SDS011;7958;53.024;12.970;2024-01-06T06:21:53;25.17;;;12.40;;
3571;SDS011;7958;53.024;12.970;2024-01-06T06:24:20;22.57;;;11.30;;
3571;SDS011;7958;53.024;12.970;2024-01-06T06:26:46;24.57;;;13.00;;
3571;SDS011;7958;53.024;12.970;2024-01-06T06:29:12;25.33;;;12.23;;
3571;SDS011;7958;53.024;12.970;2024-01-06T06:31:39;26.07;;;13.17;;
3571;SDS011;7958;53.024;12.970;2024-01-06T06:34:05;23.43;;;11.83;;
3571;SDS011;7958;53.024;12.970;2024-01-06T06:36:31;29.30;;;13.00;;
3571;SDS011;7958;53.024;12.970;2024-01-06T06:38:59;24.23;;;11.57;;
3571;SDS011;7958;53.024;12.970;2024-01-06T06:41:26;24.37;;;11.47;;
3571;SDS011;7958;53.024;12.970;2024-01-06T06:43:52;22.47;;;12.37;;
3571;SDS011;7958;53.024;12.970;2024-01-06T06:46:18;24.30;;;12.40;;
3571;SDS011;7958;53.024;12.970;2024-01-06T06:48:45;23.13;;;12.37;;
3571;SDS011;7958;53.024;12.970;2024-01-06T06:51:11;26.73;;;12.50;;
3571;SDS011;7958;53.024;12.970;2024-01-06T06:53:38;26.87;;;12.30;;
3571;SDS011;7958;53.024;12.970;2024-01-06T06:56:07;21.83;;;11.70;;
3571;SDS011;7958;53.024;12.970;2024-01-06T06:58:33;21.23;;;12.10;;
3571;SDS011;7958;53.024;12.970;2024-01-06T07:01:00;25.03;;;11.77;;
3571;SDS011;7958;53.024;12.970;2024-01-06T07:03:26;24.93;;;12.07;;
3571;SDS011;7958;53.024;12.970;2024-01-06T07:05:53;20.33;;;11.97;;
3571;SDS011;7958;53.024;12.970;2024-01-06T07:08:19;24.57;;;12.00;;
3571;SDS011;7958;53.024;12.970;2024-01-06T07:10:48;28.13;;;11.67;;
3571;SDS011;7958;53.024;12.970;2024-01-06T07:13:16;23.00;;;12.07;;
3571;SDS011;7958;53.024;12.970;2024-01-06T07:15:46;26.43;;;13.33;;
3571;SDS011;7958;53.024;12.970;2024-01-06T07:18:12;24.30;;;11.10;;
3571;SDS011;7958;53.024;12.970;2024-01-06T07:20:39;21.00;;;11.43;;
3571;SDS011;7958;53.024;12.970;2024-01-06T07:23:05;24.43;;;13.00;;
3571;SDS011;7958;53.024;12.970;2024-01-06T07:25:32;20.83;;;11.30;;
3571;SDS011;7958;53.024;12.970;2024-01-06T07:27:58;21.00;;;12.10;;
3571;SDS011;7958;53.024;12.970;2024-01-06T07:30:26;22.13;;;10.50;;
3571;SDS011;7958;53.024;12.970;2024-01-06T07:32:52;20.10;;;11.73;;
3571;SDS011;7958;53.024;12.970;2024-01-06T07:35:18;17.50;;;10.70;;
3571;SDS011;7958;53.024;12.970;2024-01-06T07:37:45;17.63;;;10.67;;
3571;SDS011;7958;53.024;12.970;2024-01-06T07:40:12;20.60;;;11.17;;
3571;SDS011;7958;53.024;12.970;2024-01-06T07:42:41;18.83;;;10.57;;
3571;SDS011;7958;53.024;12.970;2024-01-06T07:45:08;18.00;;;10.47;;
3571;SDS011;7958;53.024;12.970;2024-01-06T07:47:39;20.57;;;12.40;;
3571;SDS011;7958;53.024;12.970;2024-01-06T07:50:06;18.13;;;10.20;;
3571;SDS011;7958;53.024;12.970;2024-01-06T07:52:33;17.53;;;10.27;;
3571;SDS011;7958;53.024;12.970;2024-01-06T07:55:00;26.50;;;13.40;;
3571;SDS011;7958;53.024;12.970;2024-01-06T07:57:26;16.43;;;9.57;;
3571;SDS011;7958;53.024;12.970;2024-01-06T07:59:52;21.37;;;10.80;;
3571;SDS011;7958;53.024;12.970;2024-01-06T08:02:19;19.10;;;10.93;;
3571;SDS011;7958;53.024;12.970;2024-01-06T08:04:46;16.53;;;9.80;;
3571;SDS011;7958;53.024;12.970;2024-01-06T08:07:12;20.27;;;10.70;;
3571;SDS011;7958;53.024;12.970;2024-01-06T08:09:39;16.90;;;9.13;;
3571;SDS011;7958;53.024;12.970;2024-01-06T08:12:06;26.17;;;12.37;;
3571;SDS011;7958;53.024;12.970;2024-01-06T08:14:33;19.80;;;10.60;;
3571;SDS011;7958;53.024;12.970;2024-01-06T08:17:05;21.53;;;10.60;;
3571;SDS011;7958;53.024;12.970;2024-01-06T08:19:31;22.23;;;10.43;;
3571;SDS011;7958;53.024;12.970;2024-01-06T08:22:06;18.17;;;9.60;;
3571;SDS011;7958;53.024;12.970;2024-01-06T08:24:33;22.40;;;11.03;;
3571;SDS011;7958;53.024;12.970;2024-01-06T08:26:59;26.97;;;11.40;;
3571;SDS011;7958;53.024;12.970;2024-01-06T08:29:25;20.37;;;11.20;;
3571;SDS011;7958;53.024;12.970;2024-01-06T08:31:52;23.87;;;10.27;;
3571;SDS011;7958;53.024;12.970;2024-01-06T08:34:19;25.37;;;11.37;;
3571;SDS011;7958;53.024;12.970;2024-01-06T08:36:46;20.20;;;9.60;;
3571;SDS011;7958;53.024;12.970;2024-01-06T08:39:14;15.37;;;8.80;;
3571;SDS011;7958;53.024;12.970;2024-01-06T08:41:41;18.70;;;10.33;;
3571;SDS011;7958;53.024;12.970;2024-01-06T08:44:07;18.93;;;10.20;;
3571;SDS011;7958;53.024;12.970;2024-01-06T08:46:49;17.87;;;9.87;;
3571;SDS011;7958;53.024;12.970;2024-01-06T08:49:15;17.80;;;9.40;;
3571;SDS011;7958;53.024;12.970;2024-01-06T08:51:42;16.03;;;8.33;;
3571;SDS011;7958;53.024;12.970;2024-01-06T08:54:09;18.77;;;8.60;;
3571;SDS011;7958;53.024;12.970;2024-01-06T08:56:37;14.53;;;8.70;;
3571;SDS011;7958;53.024;12.970;2024-01-06T08:59:07;19.73;;;10.30;;
3571;SDS011;7958;53.024;12.970;2024-01-06T09:01:34;15.73;;;9.23;;
3571;SDS011;7958;53.024;12.970;2024-01-06T09:04:02;14.43;;;8.53;;
3571;SDS011;7958;53.024;12.970;2024-01-06T09:06:29;21.10;;;9.10;;
3571;SDS011;7958;53.024;12.970;2024-01-06T09:08:56;16.90;;;8.83;;
3571;SDS011;7958;53.024;12.970;2024-01-06T09:11:22;18.20;;;9.80;;
3571;SDS011;7958;53.024;12.970;2024-01-06T09:13:50;12.97;;;8.47;;
3571;SDS011;7958;53.024;12.970;2024-01-06T09:16:17;16.00;;;9.40;;
3571;SDS011;7958;53.024;12.970;2024-01-06T09:18:44;16.83;;;9.77;;
3571;SDS011;7958;53.024;12.970;2024-01-06T09:21:10;10.87;;;7.93;;
3571;SDS011;7958;53.024;12.970;2024-01-06T09:23:37;16.23;;;9.03;;
3571;SDS011;7958;53.024;12.970;2024-01-06T09:26:04;18.10;;;8.73;;
3571;SDS011;7958;53.024;12.970;2024-01-06T09:28:30;15.73;;;9.63;;
3571;SDS011;7958;53.024;12.970;2024-01-06T09:30:58;16.80;;;9.80;;
3571;SDS011;7958;53.024;12.970;2024-01-06T09:33:25;15.30;;;8.97;;
3571;SDS011;7958;53.024;12.970;2024-01-06T09:35:51;15.83;;;8.60;;
3571;SDS011;7958;53.024;12.970;2024-01-06T09:38:18;16.83;;;9.53;;
3571;SDS011;7958;53.024;12.970;2024-01-06T09:40:45;14.43;;;8.77;;
3571;SDS011;7958;53.024;12.970;2024-01-06T09:43:12;13.30;;;8.60;;
3571;SDS011;7958;53.024;12.970;2024-01-06T09:45:39;18.43;;;9.03;;
3571;SDS011;7958;53.024;12.970;2024-01-06T09:48:14;12.40;;;7.63;;
3571;SDS011;7958;53.024;12.970;2024-01-06T09:50:43;12.03;;;8.50;;
3571;SDS011;7958;53.024;12.970;2024-01-06T09:53:12;12.23;;;7.07;;
3571;SDS011;7958;53.024;12.970;2024-01-06T09:55:39;12.77;;;7.80;;
3571;SDS011;7958;53.024;12.970;2024-01-06T09:58:08;13.03;;;7.80;;
3571;SDS011;7958;53.024;12.970;2024-01-06T10:00:35;15.40;;;8.87;;
3571;SDS011;7958;53.024;12.970;2024-01-06T10:03:03;18.20;;;10.20;;
3571;SDS011;7958;53.024;12.970;2024-01-06T10:05:31;16.93;;;9.60;;
3571;SDS011;7958;53.024;12.970;2024-01-06T10:07:58;20.10;;;11.60;;
3571;SDS011;7958;53.024;12.970;2024-01-06T10:10:25;17.73;;;11.37;;
3571;SDS011;7958;53.024;12.970;2024-01-06T10:12:52;11.60;;;8.77;;
3571;SDS011;7958;53.024;12.970;2024-01-06T10:15:19;11.70;;;7.40;;
3571;SDS011;7958;53.024;12.970;2024-01-06T10:17:46;13.70;;;7.77;;
3571;SDS011;7958;53.024;12.970;2024-01-06T10:20:19;14.27;;;9.07;;
3571;SDS011;7958;53.024;12.970;2024-01-06T10:22:47;10.50;;;6.30;;
3571;SDS011;7958;53.024;12.970;2024-01-06T10:25:18;15.67;;;8.57;;
3571;SDS011;7958;53.024;12.970;2024-01-06T10:27:45;15.47;;;9.33;;
3571;SDS011;7958;53.024;12.970;2024-01-06T10:30:11;12.63;;;7.87;;
3571;SDS011;7958;53.024;12.970;2024-01-06T10:32:39;12.23;;;8.13;;
3571;SDS011;7958;53.024;12.970;2024-01-06T10:35:06;14.93;;;7.77;;
3571;SDS011;7958;53.024;12.970;2024-01-06T10:37:32;15.00;;;8.50;;
3571;SDS011;7958;53.024;12.970;2024-01-06T10:42:52;12.30;;;8.10;;
3571;SDS011;7958;53.024;12.970;2024-01-06T10:45:21;15.70;;;8.80;;
3571;SDS011;7958;53.024;12.970;2024-01-06T10:47:47;15.07;;;9.50;;
3571;SDS011;7958;53.024;12.970;2024-01-06T10:50:28;27.13;;;14.60;;
3571;SDS011;7958;53.024;12.970;2024-01-06T10:52:55;18.80;;;9.93;;
3571;SDS011;7958;53.024;12.970;2024-01-06T10:55:22;14.03;;;9.30;;
3571;SDS011;7958;53.024;12.970;2024-01-06T10:57:53;15.27;;;6.30;;
3571;SDS011;7958;53.024;12.970;2024-01-06T11:00:20;14.43;;;8.37;;
3571;SDS011;7958;53.024;12.970;2024-01-06T11:02:46;11.37;;;7.70;;
3571;SDS011;7958;53.024;12.970;2024-01-06T11:05:13;10.40;;;6.83;;
3571;SDS011;7958;53.024;12.970;2024-01-06T11:07:40;9.90;;;6.83;;
3571;SDS011;7958;53.024;12.970;2024-01-06T11:10:08;12.90;;;7.73;;
3571;SDS011;7958;53.024;12.970;2024-01-06T11:12:37;13.80;;;8.40;;
3571;SDS011;7958;53.024;12.970;2024-01-06T11:15:05;10.93;;;7.00;;
3571;SDS011;7958;53.024;12.970;2024-01-06T11:17:51;13.03;;;7.60;;
3571;SDS011;7958;53.024;12.970;2024-01-06T11:20:16;7.83;;;6.17;;
3571;SDS011;7958;53.024;12.970;2024-01-06T11:22:43;8.10;;;6.10;;
3571;SDS011;7958;53.024;12.970;2024-01-06T11:25:12;9.93;;;7.30;;
3571;SDS011;7958;53.024;12.970;2024-01-06T11:27:41;11.70;;;6.73;;
3571;SDS011;7958;53.024;12.970;2024-01-06T11:30:18;9.17;;;6.70;;
3571;SDS011;7958;53.024;12.970;2024-01-06T11:32:50;11.73;;;7.40;;
3571;SDS011;7958;53.024;12.970;2024-01-06T11:35:18;10.03;;;6.93;;
3571;SDS011;7958;53.024;12.970;2024-01-06T11:37:52;10.70;;;7.60;;
3571;SDS011;7958;53.024;12.970;2024-01-06T11:40:24;9.50;;;6.23;;
3571;SDS011;7958;53.024;12.970;2024-01-06T11:45:24;12.70;;;8.63;;
3571;SDS011;7958;53.024;12.970;2024-01-06T11:47:54;12.60;;;8.03;;
3571;SDS011;7958;53.024;12.970;2024-01-06T11:50:21;11.70;;;7.10;;
3571;SDS011;7958;53.024;12.970;2024-01-06T11:52:48;11.93;;;7.30;;
3571;SDS011;7958;53.024;12.970;2024-01-06T11:55:15;13.50;;;7.97;;
3571;SDS011;7958;53.024;12.970;2024-01-06T11:57:43;7.67;;;5.90;;
3571;SDS011;7958;53.024;12.970;2024-01-06T12:00:13;11.63;;;7.23;;
3571;SDS011;7958;53.024;12.970;2024-01-06T12:02:45;8.93;;;6.03;;
3571;SDS011;7958;53.024;12.970;2024-01-06T12:05:14;8.37;;;6.00;;
3571;SDS011;7958;53.024;12.970;2024-01-06T12:07:41;10.37;;;5.83;;
3571;SDS011;7958;53.024;12.970;2024-01-06T12:10:08;9.57;;;5.50;;
3571;SDS011;7958;53.024;12.970;2024-01-06T12:15:21;9.27;;;5.63;;
3571;SDS011;7958;53.024;12.970;2024-01-06T12:17:49;6.90;;;5.50;;
3571;SDS011;7958;53.024;12.970;2024-01-06T12:20:18;9.23;;;5.70;;
3571;SDS011;7958;53.024;12.970;2024-01-06T12:22:44;6.97;;;4.60;;
3571;SDS011;7958;53.024;12.970;2024-01-06T12:25:11;8.13;;;5.07;;
3571;SDS011;7958;53.024;12.970;2024-01-06T12:27:42;8.63;;;4.03;;
3571;SDS011;7958;53.024;12.970;2024-01-06T12:30:12;5.53;;;3.80;;
3571;SDS011;7958;53.024;12.970;2024-01-06T12:32:40;6.07;;;4.10;;
3571;SDS011;7958;53.024;12.970;2024-01-06T12:35:08;6.50;;;4.40;;
3571;SDS011;7958;53.024;12.970;2024-01-06T12:37:38;5.27;;;4.40;;
3571;SDS011;7958;53.024;12.970;2024-01-06T12:40:05;7.10;;;5.30;;
3571;SDS011;7958;53.024;12.970;2024-01-06T12:42:35;7.50;;;5.40;;
3571;SDS011;7958;53.024;12.970;2024-01-06T12:45:03;6.67;;;4.50;;
3571;SDS011;7958;53.024;12.970;2024-01-06T12:47:30;7.23;;;3.73;;
3571;SDS011;7958;53.024;12.970;2024-01-06T12:49:58;7.53;;;4.27;;
3571;SDS011;7958;53.024;12.970;2024-01-06T12:52:26;8.00;;;5.33;;
3571;SDS011;7958;53.024;12.970;2024-01-06T12:54:54;12.60;;;5.30;;
3571;SDS011;7958;53.024;12.970;2024-01-06T12:57:22;5.20;;;3.93;;
3571;SDS011;7958;53.024;12.970;2024-01-06T12:59:49;4.77;;;4.00;;
3571;SDS011;7958;53.024;12.970;2024-01-06T13:02:28;10.43;;;5.70;;
3571;SDS011;7958;53.024;12.970;2024-01-06T13:07:20;8.85;;;4.45;;
3571;SDS011;7958;53.024;12.970;2024-01-06T13:09:48;9.40;;;6.50;;
3571;SDS011;7958;53.024;12.970;2024-01-06T13:12:15;7.10;;;4.30;;
3571;SDS011;7958;53.024;12.970;2024-01-06T13:14:43;7.53;;;5.40;;
3571;SDS011;7958;53.024;12.970;2024-01-06T13:17:12;6.90;;;4.57;;
3571;SDS011;7958;53.024;12.970;2024-01-06T13:19:39;8.03;;;4.73;;
3571;SDS011;7958;53.024;12.970;2024-01-06T13:22:05;9.80;;;6.27;;
3571;SDS011;7958;53.024;12.970;2024-01-06T13:24:35;7.40;;;4.53;;
3571;SDS011;7958;53.024;12.970;2024-01-06T13:27:04;8.63;;;5.37;;
3571;SDS011;7958;53.024;12.970;2024-01-06T13:29:30;7.67;;;4.50;;
3571;SDS011;7958;53.024;12.970;2024-01-06T13:31:57;6.03;;;4.60;;
3571;SDS011;7958;53.024;12.970;2024-01-06T13:34:24;5.43;;;4.53;;
3571;SDS011;7958;53.024;12.970;2024-01-06T13:36:50;7.23;;;5.40;;
3571;SDS011;7958;53.024;12.970;2024-01-06T13:39:16;8.10;;;5.77;;
3571;SDS011;7958;53.024;12.970;2024-01-06T13:41:45;10.03;;;4.90;;
3571;SDS011;7958;53.024;12.970;2024-01-06T13:44:15;6.87;;;4.80;;
3571;SDS011;7958;53.024;12.970;2024-01-06T13:46:42;5.53;;;4.40;;
3571;SDS011;7958;53.024;12.970;2024-01-06T13:49:09;8.77;;;5.40;;
3571;SDS011;7958;53.024;12.970;2024-01-06T13:51:36;5.10;;;4.20;;
3571;SDS011;7958;53.024;12.970;2024-01-06T13:54:06;5.53;;;3.97;;
3571;SDS011;7958;53.024;12.970;2024-01-06T13:56:33;7.77;;;4.97;;
3571;SDS011;7958;53.024;12.970;2024-01-06T13:58:59;9.77;;;4.43;;
3571;SDS011;7958;53.024;12.970;2024-01-06T14:01:27;6.67;;;4.33;;
3571;SDS011;7958;53.024;12.970;2024-01-06T14:03:58;7.97;;;5.17;;
3571;SDS011;7958;53.024;12.970;2024-01-06T14:06:24;8.60;;;4.93;;
3571;SDS011;7958;53.024;12.970;2024-01-06T14:08:54;7.93;;;4.90;;
3571;SDS011;7958;53.024;12.970;2024-01-06T14:11:21;5.93;;;4.70;;
3571;SDS011;7958;53.024;12.970;2024-01-06T14:13:47;6.27;;;4.20;;
3571;SDS011;7958;53.024;12.970;2024-01-06T14:16:16;12.20;;;6.43;;
3571;SDS011;7958;53.024;12.970;2024-01-06T14:18:45;5.10;;;4.37;;
3571;SDS011;7958;53.024;12.970;2024-01-06T14:21:11;4.90;;;3.77;;
3571;SDS011;7958;53.024;12.970;2024-01-06T14:23:39;7.77;;;5.20;;
3571;SDS011;7958;53.024;12.970;2024-01-06T14:26:06;6.30;;;4.67;;
3571;SDS011;7958;53.024;12.970;2024-01-06T14:28:32;3.50;;;3.20;;
3571;SDS011;7958;53.024;12.970;2024-01-06T14:30:59;6.50;;;5.83;;
3571;SDS011;7958;53.024;12.970;2024-01-06T14:33:25;8.20;;;5.43;;
3571;SDS011;7958;53.024;12.970;2024-01-06T14:35:55;9.00;;;6.17;;
3571;SDS011;7958;53.024;12.970;2024-01-06T14:38:23;5.40;;;4.60;;
3571;SDS011;7958;53.024;12.970;2024-01-06T14:40:51;5.63;;;5.03;;
3571;SDS011;7958;53.024;12.970;2024-01-06T14:43:18;4.33;;;3.93;;
3571;SDS011;7958;53.024;12.970;2024-01-06T14:45:45;6.10;;;4.67;;
3571;SDS011;7958;53.024;12.970;2024-01-06T14:48:12;7.57;;;5.63;;
3571;SDS011;7958;53.024;12.970;2024-01-06T14:50:38;9.20;;;4.50;;
3571;SDS011;7958;53.024;12.970;2024-01-06T14:53:06;8.40;;;4.60;;
3571;SDS011;7958;53.024;12.970;2024-01-06T14:55:34;8.30;;;3.80;;